KANB

Anniston Regional Airport

Anniston, Alabama, USA
METAR KANB 250053Z AUTO 25004KT 10SM CLR 24/20 A3004 RMK AO2 SLP164 T02440200
Observed Flight Rules
May-25 @ 00:53 UTC (14 minutes ago) Visual Flight Rules
Wind Visibility Clouds
250° at 4 knots 10 miles
  • Clear skies
Temperatures Readings
Current 24°C / 75°F
Dewpoint 20°C / 68°F
Humidity 78%
Altimeter 30.04" Hg
Pressure 1016.4 hPa
Elevation 183
METAR KANB 250053Z AUTO 25004KT 10SM CLR 24/20 A3004 RMK AO2 SLP164 T02440200
Observed Flight Rules
May-25 @ 00:53 UTC
(14 minutes ago)
VFR
Wind Visibility
250° at 4 knots 10 miles
Clouds
  • Clear skies
Temperature Dewpoint
24°C / 75°F 20°C / 68°F
Humidity Altimeter Pressure
78% 30.04" Hg 1016.4 hPa